In Rescue
 
Open Full Screen Window  High Contrast Mode
Wind Gusting 00 knots
04
December 14, 2018 4:40 AM PST
Weather Information
Wind Direction
  110 °
Wind Speed
  04 kt (5 mph)
Wind Gust
  00 kt (0 mph)
Altimeter
30.08 in
Visibility
7 SM
Temperature
06° C
43° F
Dewpoint
05° C
41° F
Humidity
93%
1hr Rain Fall
00.00 in.
24hr Rain Fall
00.00 in.
Sky Condition
Clear
VFR

METAR KCVH 141240Z AUTO 11004KT 7SM CLR 06/05 A3008 RMK A01

FAA Disclaimer: The data displayed is for advisory purposes only and is not to be used for flight planning or operations.